sensor_id;sensor_type;location;lat;lon;timestamp;P1;durP1;ratioP1;P2;durP2;ratioP2
17197;SDS011;8715;51.010;6.812;2023-02-28T00:01:30;680.85;;;651.80;;
17197;SDS011;8715;51.010;6.812;2023-02-28T00:03:55;673.07;;;645.13;;
17197;SDS011;8715;51.010;6.812;2023-02-28T00:06:21;664.65;;;636.83;;
17197;SDS011;8715;51.010;6.812;2023-02-28T00:08:46;665.90;;;638.28;;
17197;SDS011;8715;51.010;6.812;2023-02-28T00:11:12;654.37;;;627.23;;
17197;SDS011;8715;51.010;6.812;2023-02-28T00:13:42;660.35;;;633.20;;
17197;SDS011;8715;51.010;6.812;2023-02-28T00:16:09;635.30;;;608.55;;
17197;SDS011;8715;51.010;6.812;2023-02-28T00:18:34;639.00;;;612.92;;
17197;SDS011;8715;51.010;6.812;2023-02-28T00:21:00;629.10;;;603.47;;
17197;SDS011;8715;51.010;6.812;2023-02-28T00:23:25;646.20;;;619.27;;
17197;SDS011;8715;51.010;6.812;2023-02-28T00:25:51;632.33;;;606.15;;
17197;SDS011;8715;51.010;6.812;2023-02-28T00:28:18;634.85;;;608.47;;
17197;SDS011;8715;51.010;6.812;2023-02-28T00:30:43;624.47;;;598.78;;
17197;SDS011;8715;51.010;6.812;2023-02-28T00:33:08;624.33;;;598.00;;
17197;SDS011;8715;51.010;6.812;2023-02-28T00:35:34;625.40;;;599.83;;
17197;SDS011;8715;51.010;6.812;2023-02-28T00:37:59;647.53;;;620.87;;
17197;SDS011;8715;51.010;6.812;2023-02-28T00:40:24;692.10;;;663.37;;
17197;SDS011;8715;51.010;6.812;2023-02-28T00:42:49;632.30;;;606.10;;
17197;SDS011;8715;51.010;6.812;2023-02-28T00:45:14;638.80;;;612.57;;
17197;SDS011;8715;51.010;6.812;2023-02-28T00:47:40;645.37;;;618.50;;
17197;SDS011;8715;51.010;6.812;2023-02-28T00:50:05;638.20;;;611.67;;
17197;SDS011;8715;51.010;6.812;2023-02-28T00:52:31;639.65;;;613.28;;
17197;SDS011;8715;51.010;6.812;2023-02-28T00:54:56;635.17;;;609.30;;
17197;SDS011;8715;51.010;6.812;2023-02-28T00:57:21;626.63;;;599.53;;
17197;SDS011;8715;51.010;6.812;2023-02-28T00:59:47;631.43;;;605.57;;
17197;SDS011;8715;51.010;6.812;2023-02-28T01:02:12;647.30;;;620.93;;
17197;SDS011;8715;51.010;6.812;2023-02-28T01:04:37;621.20;;;595.23;;
17197;SDS011;8715;51.010;6.812;2023-02-28T01:07:02;641.37;;;614.57;;
17197;SDS011;8715;51.010;6.812;2023-02-28T01:09:28;647.90;;;621.35;;
17197;SDS011;8715;51.010;6.812;2023-02-28T01:11:53;643.22;;;616.90;;
17197;SDS011;8715;51.010;6.812;2023-02-28T01:14:19;628.73;;;603.07;;
17197;SDS011;8715;51.010;6.812;2023-02-28T01:16:44;633.88;;;607.95;;
17197;SDS011;8715;51.010;6.812;2023-02-28T01:19:09;630.80;;;605.37;;
17197;SDS011;8715;51.010;6.812;2023-02-28T01:21:34;603.40;;;578.40;;
17197;SDS011;8715;51.010;6.812;2023-02-28T01:24:00;664.22;;;636.33;;
17197;SDS011;8715;51.010;6.812;2023-02-28T01:26:26;635.78;;;609.05;;
17197;SDS011;8715;51.010;6.812;2023-02-28T01:28:51;644.33;;;617.10;;
17197;SDS011;8715;51.010;6.812;2023-02-28T01:31:17;645.13;;;618.78;;
17197;SDS011;8715;51.010;6.812;2023-02-28T01:33:43;623.80;;;598.10;;
17197;SDS011;8715;51.010;6.812;2023-02-28T01:36:10;617.80;;;591.85;;
17197;SDS011;8715;51.010;6.812;2023-02-28T01:38:35;618.97;;;593.45;;
17197;SDS011;8715;51.010;6.812;2023-02-28T01:41:01;606.90;;;581.73;;
17197;SDS011;8715;51.010;6.812;2023-02-28T01:45:52;625.20;;;599.47;;
17197;SDS011;8715;51.010;6.812;2023-02-28T01:48:17;606.13;;;581.03;;
17197;SDS011;8715;51.010;6.812;2023-02-28T01:50:44;622.28;;;596.85;;
17197;SDS011;8715;51.010;6.812;2023-02-28T01:53:11;630.70;;;604.13;;
17197;SDS011;8715;51.010;6.812;2023-02-28T01:55:38;631.10;;;605.03;;
17197;SDS011;8715;51.010;6.812;2023-02-28T01:58:04;630.90;;;604.88;;
17197;SDS011;8715;51.010;6.812;2023-02-28T02:00:30;611.97;;;586.50;;
17197;SDS011;8715;51.010;6.812;2023-02-28T02:02:57;623.30;;;597.97;;
17197;SDS011;8715;51.010;6.812;2023-02-28T02:05:25;618.38;;;592.83;;
17197;SDS011;8715;51.010;6.812;2023-02-28T02:07:51;616.22;;;590.58;;
17197;SDS011;8715;51.010;6.812;2023-02-28T02:10:19;619.45;;;594.20;;
17197;SDS011;8715;51.010;6.812;2023-02-28T02:15:31;618.65;;;593.13;;
17197;SDS011;8715;51.010;6.812;2023-02-28T02:17:57;613.13;;;587.60;;
17197;SDS011;8715;51.010;6.812;2023-02-28T02:20:46;611.38;;;585.80;;
17197;SDS011;8715;51.010;6.812;2023-02-28T02:23:29;628.95;;;602.83;;
17197;SDS011;8715;51.010;6.812;2023-02-28T02:36:35;614.75;;;589.00;;
17197;SDS011;8715;51.010;6.812;2023-02-28T02:41:56;607.55;;;582.03;;
17197;SDS011;8715;51.010;6.812;2023-02-28T02:44:21;622.08;;;596.25;;
17197;SDS011;8715;51.010;6.812;2023-02-28T02:46:50;610.22;;;584.95;;
17197;SDS011;8715;51.010;6.812;2023-02-28T02:49:24;624.15;;;598.47;;
17197;SDS011;8715;51.010;6.812;2023-02-28T02:51:51;640.22;;;614.03;;
17197;SDS011;8715;51.010;6.812;2023-02-28T02:54:18;633.72;;;607.55;;
17197;SDS011;8715;51.010;6.812;2023-02-28T02:56:45;653.13;;;626.10;;
17197;SDS011;8715;51.010;6.812;2023-02-28T02:59:12;633.75;;;607.63;;
17197;SDS011;8715;51.010;6.812;2023-02-28T03:01:38;682.58;;;654.13;;
17197;SDS011;8715;51.010;6.812;2023-02-28T03:04:06;626.42;;;600.65;;
17197;SDS011;8715;51.010;6.812;2023-02-28T03:06:32;627.60;;;601.35;;
17197;SDS011;8715;51.010;6.812;2023-02-28T03:08:57;615.67;;;590.47;;
17197;SDS011;8715;51.010;6.812;2023-02-28T03:11:22;665.93;;;638.43;;
17197;SDS011;8715;51.010;6.812;2023-02-28T03:16:35;619.58;;;593.13;;
17197;SDS011;8715;51.010;6.812;2023-02-28T03:19:24;635.92;;;609.50;;
17197;SDS011;8715;51.010;6.812;2023-02-28T03:26:55;665.67;;;638.37;;
17197;SDS011;8715;51.010;6.812;2023-02-28T03:29:28;629.50;;;603.25;;
17197;SDS011;8715;51.010;6.812;2023-02-28T03:32:03;632.40;;;605.88;;
17197;SDS011;8715;51.010;6.812;2023-02-28T03:34:34;632.45;;;605.45;;
17197;SDS011;8715;51.010;6.812;2023-02-28T03:37:02;628.28;;;601.95;;
17197;SDS011;8715;51.010;6.812;2023-02-28T03:39:39;631.75;;;605.83;;
17197;SDS011;8715;51.010;6.812;2023-02-28T03:45:13;615.43;;;589.00;;
17197;SDS011;8715;51.010;6.812;2023-02-28T03:47:23;616.42;;;590.10;;
17197;SDS011;8715;51.010;6.812;2023-02-28T03:52:22;644.03;;;617.28;;
17197;SDS011;8715;51.010;6.812;2023-02-28T03:54:50;629.35;;;602.88;;
17197;SDS011;8715;51.010;6.812;2023-02-28T03:59:52;626.65;;;600.25;;
17197;SDS011;8715;51.010;6.812;2023-02-28T04:02:19;638.45;;;611.83;;
17197;SDS011;8715;51.010;6.812;2023-02-28T04:04:44;643.27;;;615.93;;
17197;SDS011;8715;51.010;6.812;2023-02-28T04:07:13;627.10;;;600.80;;
17197;SDS011;8715;51.010;6.812;2023-02-28T04:09:38;626.70;;;600.30;;
17197;SDS011;8715;51.010;6.812;2023-02-28T04:12:03;649.80;;;622.20;;
17197;SDS011;8715;51.010;6.812;2023-02-28T04:14:28;640.60;;;613.97;;
17197;SDS011;8715;51.010;6.812;2023-02-28T04:16:54;637.25;;;610.85;;
17197;SDS011;8715;51.010;6.812;2023-02-28T04:19:19;644.43;;;617.07;;
17197;SDS011;8715;51.010;6.812;2023-02-28T04:21:45;636.47;;;609.97;;
17197;SDS011;8715;51.010;6.812;2023-02-28T04:24:12;662.78;;;634.47;;
17197;SDS011;8715;51.010;6.812;2023-02-28T04:26:39;647.95;;;620.25;;
17197;SDS011;8715;51.010;6.812;2023-02-28T04:29:05;652.08;;;624.85;;
17197;SDS011;8715;51.010;6.812;2023-02-28T04:31:30;643.70;;;616.53;;
17197;SDS011;8715;51.010;6.812;2023-02-28T04:33:56;646.50;;;618.80;;
17197;SDS011;8715;51.010;6.812;2023-02-28T04:36:21;646.38;;;619.28;;
17197;SDS011;8715;51.010;6.812;2023-02-28T04:38:48;662.90;;;635.63;;
17197;SDS011;8715;51.010;6.812;2023-02-28T04:41:13;624.28;;;597.63;;
17197;SDS011;8715;51.010;6.812;2023-02-28T04:43:38;628.87;;;602.77;;
17197;SDS011;8715;51.010;6.812;2023-02-28T04:46:04;624.97;;;599.17;;
17197;SDS011;8715;51.010;6.812;2023-02-28T04:48:31;614.00;;;588.60;;
17197;SDS011;8715;51.010;6.812;2023-02-28T04:51:15;618.47;;;592.53;;
17197;SDS011;8715;51.010;6.812;2023-02-28T04:53:41;616.85;;;591.35;;
17197;SDS011;8715;51.010;6.812;2023-02-28T04:56:07;610.25;;;584.17;;
17197;SDS011;8715;51.010;6.812;2023-02-28T04:58:32;630.78;;;603.90;;
17197;SDS011;8715;51.010;6.812;2023-02-28T05:01:01;638.92;;;612.42;;
17197;SDS011;8715;51.010;6.812;2023-02-28T05:03:26;622.40;;;596.05;;
17197;SDS011;8715;51.010;6.812;2023-02-28T05:05:51;608.93;;;583.67;;
17197;SDS011;8715;51.010;6.812;2023-02-28T05:08:17;599.33;;;574.57;;
17197;SDS011;8715;51.010;6.812;2023-02-28T05:10:42;615.37;;;589.17;;
17197;SDS011;8715;51.010;6.812;2023-02-28T05:13:09;609.23;;;584.03;;
17197;SDS011;8715;51.010;6.812;2023-02-28T05:15:34;605.88;;;580.42;;
17197;SDS011;8715;51.010;6.812;2023-02-28T05:18:00;611.90;;;586.50;;
17197;SDS011;8715;51.010;6.812;2023-02-28T05:20:25;623.57;;;598.03;;
17197;SDS011;8715;51.010;6.812;2023-02-28T05:22:50;622.90;;;596.30;;
17197;SDS011;8715;51.010;6.812;2023-02-28T05:25:17;609.42;;;584.28;;
17197;SDS011;8715;51.010;6.812;2023-02-28T05:27:43;583.17;;;559.00;;
17197;SDS011;8715;51.010;6.812;2023-02-28T05:30:08;579.03;;;555.10;;
17197;SDS011;8715;51.010;6.812;2023-02-28T05:32:35;603.70;;;578.33;;
17197;SDS011;8715;51.010;6.812;2023-02-28T05:35:01;603.55;;;578.03;;
17197;SDS011;8715;51.010;6.812;2023-02-28T05:37:26;593.77;;;568.87;;
17197;SDS011;8715;51.010;6.812;2023-02-28T05:39:51;587.83;;;562.83;;
17197;SDS011;8715;51.010;6.812;2023-02-28T05:42:16;586.17;;;561.87;;
17197;SDS011;8715;51.010;6.812;2023-02-28T05:44:41;589.27;;;564.43;;
17197;SDS011;8715;51.010;6.812;2023-02-28T05:47:07;594.93;;;570.03;;
17197;SDS011;8715;51.010;6.812;2023-02-28T05:49:32;593.57;;;569.03;;
17197;SDS011;8715;51.010;6.812;2023-02-28T05:51:57;601.03;;;576.17;;
17197;SDS011;8715;51.010;6.812;2023-02-28T05:54:22;601.20;;;576.70;;
17197;SDS011;8715;51.010;6.812;2023-02-28T05:56:47;599.17;;;574.73;;
17197;SDS011;8715;51.010;6.812;2023-02-28T05:59:13;613.13;;;587.07;;
17197;SDS011;8715;51.010;6.812;2023-02-28T06:01:39;596.37;;;571.63;;
17197;SDS011;8715;51.010;6.812;2023-02-28T06:04:05;594.72;;;569.90;;
17197;SDS011;8715;51.010;6.812;2023-02-28T06:06:31;658.42;;;631.38;;
17197;SDS011;8715;51.010;6.812;2023-02-28T06:08:56;612.42;;;587.15;;
17197;SDS011;8715;51.010;6.812;2023-02-28T06:11:22;606.83;;;580.92;;
17197;SDS011;8715;51.010;6.812;2023-02-28T06:13:53;610.63;;;584.92;;
17197;SDS011;8715;51.010;6.812;2023-02-28T06:16:18;612.03;;;586.67;;
17197;SDS011;8715;51.010;6.812;2023-02-28T06:18:43;600.20;;;575.73;;
17197;SDS011;8715;51.010;6.812;2023-02-28T06:21:08;609.97;;;584.67;;
17197;SDS011;8715;51.010;6.812;2023-02-28T06:23:33;609.17;;;583.87;;
17197;SDS011;8715;51.010;6.812;2023-02-28T06:25:59;582.42;;;558.75;;
17197;SDS011;8715;51.010;6.812;2023-02-28T06:28:25;602.10;;;577.13;;
17197;SDS011;8715;51.010;6.812;2023-02-28T06:30:50;592.88;;;568.58;;
17197;SDS011;8715;51.010;6.812;2023-02-28T06:33:16;593.80;;;566.92;;
17197;SDS011;8715;51.010;6.812;2023-02-28T06:35:43;578.47;;;554.57;;
17197;SDS011;8715;51.010;6.812;2023-02-28T06:38:09;594.75;;;569.47;;
17197;SDS011;8715;51.010;6.812;2023-02-28T06:40:34;595.37;;;570.67;;
17197;SDS011;8715;51.010;6.812;2023-02-28T06:43:00;583.67;;;559.47;;
17197;SDS011;8715;51.010;6.812;2023-02-28T06:45:25;596.17;;;570.73;;
17197;SDS011;8715;51.010;6.812;2023-02-28T06:47:51;589.53;;;565.20;;
17197;SDS011;8715;51.010;6.812;2023-02-28T06:50:17;592.97;;;568.17;;
17197;SDS011;8715;51.010;6.812;2023-02-28T06:52:45;592.35;;;567.97;;
17197;SDS011;8715;51.010;6.812;2023-02-28T06:55:10;599.47;;;574.95;;
17197;SDS011;8715;51.010;6.812;2023-02-28T06:57:36;616.40;;;590.27;;
17197;SDS011;8715;51.010;6.812;2023-02-28T07:00:03;615.58;;;589.85;;
17197;SDS011;8715;51.010;6.812;2023-02-28T07:02:29;629.60;;;603.72;;
17197;SDS011;8715;51.010;6.812;2023-02-28T07:04:55;624.35;;;598.10;;
17197;SDS011;8715;51.010;6.812;2023-02-28T07:07:20;633.13;;;605.77;;
17197;SDS011;8715;51.010;6.812;2023-02-28T07:09:45;629.57;;;603.17;;
17197;SDS011;8715;51.010;6.812;2023-02-28T07:12:10;641.77;;;614.30;;
17197;SDS011;8715;51.010;6.812;2023-02-28T07:14:36;645.27;;;618.43;;
17197;SDS011;8715;51.010;6.812;2023-02-28T07:17:01;651.88;;;624.55;;
17197;SDS011;8715;51.010;6.812;2023-02-28T07:19:27;650.57;;;623.63;;
17197;SDS011;8715;51.010;6.812;2023-02-28T07:21:52;646.50;;;619.70;;
17197;SDS011;8715;51.010;6.812;2023-02-28T07:24:17;642.40;;;615.57;;
17197;SDS011;8715;51.010;6.812;2023-02-28T07:26:42;669.05;;;641.13;;
17197;SDS011;8715;51.010;6.812;2023-02-28T07:29:08;657.23;;;629.07;;
17197;SDS011;8715;51.010;6.812;2023-02-28T07:31:33;666.20;;;637.97;;
17197;SDS011;8715;51.010;6.812;2023-02-28T07:33:58;656.13;;;628.13;;
17197;SDS011;8715;51.010;6.812;2023-02-28T07:36:23;659.27;;;631.40;;
17197;SDS011;8715;51.010;6.812;2023-02-28T07:38:48;656.57;;;629.40;;
17197;SDS011;8715;51.010;6.812;2023-02-28T07:41:18;656.33;;;628.72;;
17197;SDS011;8715;51.010;6.812;2023-02-28T07:43:44;671.35;;;642.97;;
17197;SDS011;8715;51.010;6.812;2023-02-28T07:46:10;663.50;;;635.70;;
17197;SDS011;8715;51.010;6.812;2023-02-28T07:48:36;652.50;;;624.90;;
17197;SDS011;8715;51.010;6.812;2023-02-28T07:51:01;674.53;;;646.07;;
17197;SDS011;8715;51.010;6.812;2023-02-28T07:53:27;669.45;;;640.22;;
17197;SDS011;8715;51.010;6.812;2023-02-28T07:55:56;673.30;;;643.30;;
17197;SDS011;8715;51.010;6.812;2023-02-28T07:58:22;674.72;;;646.03;;
17197;SDS011;8715;51.010;6.812;2023-02-28T08:00:47;667.78;;;639.58;;
17197;SDS011;8715;51.010;6.812;2023-02-28T08:03:12;684.03;;;654.37;;
17197;SDS011;8715;51.010;6.812;2023-02-28T08:05:38;673.53;;;645.17;;
17197;SDS011;8715;51.010;6.812;2023-02-28T08:08:04;697.00;;;667.03;;
17197;SDS011;8715;51.010;6.812;2023-02-28T08:10:29;699.83;;;669.97;;
17197;SDS011;8715;51.010;6.812;2023-02-28T08:12:54;690.17;;;660.90;;
17197;SDS011;8715;51.010;6.812;2023-02-28T08:15:19;685.43;;;656.27;;
17197;SDS011;8715;51.010;6.812;2023-02-28T08:17:44;703.10;;;673.20;;
17197;SDS011;8715;51.010;6.812;2023-02-28T08:20:10;700.47;;;670.30;;
17197;SDS011;8715;51.010;6.812;2023-02-28T08:22:35;708.88;;;678.25;;
17197;SDS011;8715;51.010;6.812;2023-02-28T08:25:00;706.13;;;675.80;;
17197;SDS011;8715;51.010;6.812;2023-02-28T08:27:26;722.83;;;689.87;;
17197;SDS011;8715;51.010;6.812;2023-02-28T08:29:51;693.93;;;663.97;;
17197;SDS011;8715;51.010;6.812;2023-02-28T08:32:16;717.90;;;686.27;;
17197;SDS011;8715;51.010;6.812;2023-02-28T08:34:41;714.40;;;683.17;;
17197;SDS011;8715;51.010;6.812;2023-02-28T08:37:06;727.03;;;695.23;;
17197;SDS011;8715;51.010;6.812;2023-02-28T08:39:34;719.97;;;688.73;;
17197;SDS011;8715;51.010;6.812;2023-02-28T08:41:59;727.03;;;695.00;;
17197;SDS011;8715;51.010;6.812;2023-02-28T08:44:24;722.73;;;690.90;;
17197;SDS011;8715;51.010;6.812;2023-02-28T08:46:49;718.50;;;687.00;;
17197;SDS011;8715;51.010;6.812;2023-02-28T08:49:14;739.53;;;706.80;;
17197;SDS011;8715;51.010;6.812;2023-02-28T08:51:40;743.58;;;710.20;;
17197;SDS011;8715;51.010;6.812;2023-02-28T08:54:05;725.63;;;693.40;;
17197;SDS011;8715;51.010;6.812;2023-02-28T08:56:31;734.37;;;701.20;;
17197;SDS011;8715;51.010;6.812;2023-02-28T08:58:56;730.90;;;698.57;;
17197;SDS011;8715;51.010;6.812;2023-02-28T09:01:22;731.17;;;698.88;;
17197;SDS011;8715;51.010;6.812;2023-02-28T09:03:49;726.38;;;693.83;;
17197;SDS011;8715;51.010;6.812;2023-02-28T09:06:14;729.60;;;697.20;;
17197;SDS011;8715;51.010;6.812;2023-02-28T09:08:40;731.10;;;699.10;;
17197;SDS011;8715;51.010;6.812;2023-02-28T09:11:06;725.55;;;693.63;;
17197;SDS011;8715;51.010;6.812;2023-02-28T09:13:31;742.58;;;708.95;;
17197;SDS011;8715;51.010;6.812;2023-02-28T09:15:57;756.70;;;722.63;;
17197;SDS011;8715;51.010;6.812;2023-02-28T09:18:23;738.83;;;706.17;;
17197;SDS011;8715;51.010;6.812;2023-02-28T09:20:48;727.13;;;694.30;;
17197;SDS011;8715;51.010;6.812;2023-02-28T09:23:14;755.10;;;721.03;;
17197;SDS011;8715;51.010;6.812;2023-02-28T09:25:46;726.63;;;694.50;;
17197;SDS011;8715;51.010;6.812;2023-02-28T09:28:12;733.95;;;701.25;;
17197;SDS011;8715;51.010;6.812;2023-02-28T09:30:37;740.97;;;707.85;;
17197;SDS011;8715;51.010;6.812;2023-02-28T09:33:02;735.47;;;702.57;;
17197;SDS011;8715;51.010;6.812;2023-02-28T09:35:28;734.23;;;701.63;;
17197;SDS011;8715;51.010;6.812;2023-02-28T09:37:53;760.60;;;725.80;;
17197;SDS011;8715;51.010;6.812;2023-02-28T09:40:19;735.27;;;702.70;;
17197;SDS011;8715;51.010;6.812;2023-02-28T09:42:46;732.17;;;699.65;;
17197;SDS011;8715;51.010;6.812;2023-02-28T09:45:26;737.50;;;704.22;;
17197;SDS011;8715;51.010;6.812;2023-02-28T09:47:52;768.20;;;733.47;;
17197;SDS011;8715;51.010;6.812;2023-02-28T09:51:02;741.58;;;708.17;;
17197;SDS011;8715;51.010;6.812;2023-02-28T09:53:13;735.28;;;702.90;;
17197;SDS011;8715;51.010;6.812;2023-02-28T09:55:44;742.67;;;709.47;;
17197;SDS011;8715;51.010;6.812;2023-02-28T10:01:16;736.55;;;703.75;;
17197;SDS011;8715;51.010;6.812;2023-02-28T10:03:46;733.75;;;701.50;;
17197;SDS011;8715;51.010;6.812;2023-02-28T10:06:18;743.10;;;709.72;;
17197;SDS011;8715;51.010;6.812;2023-02-28T10:08:52;741.53;;;708.42;;
17197;SDS011;8715;51.010;6.812;2023-02-28T10:11:21;742.58;;;709.03;;
17197;SDS011;8715;51.010;6.812;2023-02-28T10:13:50;749.17;;;715.00;;
17197;SDS011;8715;51.010;6.812;2023-02-28T10:19:06;759.78;;;724.33;;
17197;SDS011;8715;51.010;6.812;2023-02-28T10:24:04;756.80;;;721.55;;
17197;SDS011;8715;51.010;6.812;2023-02-28T10:26:31;773.72;;;737.88;;
17197;SDS011;8715;51.010;6.812;2023-02-28T10:28:57;756.45;;;721.90;;
17197;SDS011;8715;51.010;6.812;2023-02-28T10:31:22;750.63;;;716.53;;
17197;SDS011;8715;51.010;6.812;2023-02-28T10:33:47;762.17;;;726.93;;
17197;SDS011;8715;51.010;6.812;2023-02-28T10:36:14;752.70;;;718.07;;
17197;SDS011;8715;51.010;6.812;2023-02-28T10:38:39;762.53;;;727.10;;
17197;SDS011;8715;51.010;6.812;2023-02-28T10:41:06;754.70;;;720.15;;
17197;SDS011;8715;51.010;6.812;2023-02-28T10:43:32;760.40;;;725.47;;
17197;SDS011;8715;51.010;6.812;2023-02-28T10:45:58;777.53;;;740.30;;
17197;SDS011;8715;51.010;6.812;2023-02-28T10:48:29;777.78;;;740.65;;
17197;SDS011;8715;51.010;6.812;2023-02-28T10:50:55;769.97;;;733.83;;
17197;SDS011;8715;51.010;6.812;2023-02-28T10:58:28;770.20;;;733.15;;
17197;SDS011;8715;51.010;6.812;2023-02-28T11:00:53;775.00;;;737.85;;
17197;SDS011;8715;51.010;6.812;2023-02-28T11:03:28;767.83;;;731.88;;
17197;SDS011;8715;51.010;6.812;2023-02-28T11:05:53;769.97;;;733.83;;
17197;SDS011;8715;51.010;6.812;2023-02-28T11:08:19;770.70;;;733.87;;
17197;SDS011;8715;51.010;6.812;2023-02-28T11:10:45;776.28;;;739.08;;
17197;SDS011;8715;51.010;6.812;2023-02-28T11:13:17;774.70;;;737.78;;
17197;SDS011;8715;51.010;6.812;2023-02-28T11:15:48;780.92;;;743.47;;
17197;SDS011;8715;51.010;6.812;2023-02-28T11:18:20;776.55;;;739.67;;
17197;SDS011;8715;51.010;6.812;2023-02-28T11:20:50;762.40;;;727.05;;
17197;SDS011;8715;51.010;6.812;2023-02-28T11:23:16;777.03;;;740.38;;
17197;SDS011;8715;51.010;6.812;2023-02-28T11:25:45;773.38;;;736.58;;
17197;SDS011;8715;51.010;6.812;2023-02-28T11:33:28;778.00;;;740.97;;
17197;SDS011;8715;51.010;6.812;2023-02-28T11:35:56;772.70;;;735.92;;
17197;SDS011;8715;51.010;6.812;2023-02-28T11:38:23;771.38;;;734.83;;
17197;SDS011;8715;51.010;6.812;2023-02-28T11:45:53;771.75;;;735.35;;
17197;SDS011;8715;51.010;6.812;2023-02-28T12:06:18;780.60;;;742.83;;
17197;SDS011;8715;51.010;6.812;2023-02-28T12:08:58;778.95;;;741.75;;
17197;SDS011;8715;51.010;6.812;2023-02-28T12:11:29;776.72;;;739.50;;
17197;SDS011;8715;51.010;6.812;2023-02-28T12:16:46;780.57;;;742.93;;
17197;SDS011;8715;51.010;6.812;2023-02-28T12:21:39;776.70;;;739.37;;
17197;SDS011;8715;51.010;6.812;2023-02-28T12:24:18;783.42;;;745.70;;
17197;SDS011;8715;51.010;6.812;2023-02-28T12:26:46;787.75;;;749.33;;
17197;SDS011;8715;51.010;6.812;2023-02-28T12:31:53;785.22;;;746.92;;
17197;SDS011;8715;51.010;6.812;2023-02-28T12:34:25;781.20;;;742.95;;
17197;SDS011;8715;51.010;6.812;2023-02-28T12:36:52;811.67;;;771.13;;
17197;SDS011;8715;51.010;6.812;2023-02-28T12:39:20;785.58;;;746.90;;
17197;SDS011;8715;51.010;6.812;2023-02-28T12:41:49;785.38;;;746.80;;
17197;SDS011;8715;51.010;6.812;2023-02-28T12:44:17;797.70;;;757.95;;
17197;SDS011;8715;51.010;6.812;2023-02-28T12:46:46;788.97;;;749.95;;
17197;SDS011;8715;51.010;6.812;2023-02-28T12:49:17;781.05;;;742.58;;
17197;SDS011;8715;51.010;6.812;2023-02-28T12:51:44;793.55;;;754.30;;
17197;SDS011;8715;51.010;6.812;2023-02-28T12:54:12;789.65;;;750.33;;
17197;SDS011;8715;51.010;6.812;2023-02-28T12:59:25;784.27;;;745.97;;
17197;SDS011;8715;51.010;6.812;2023-02-28T13:01:57;777.85;;;740.28;;
17197;SDS011;8715;51.010;6.812;2023-02-28T13:04:47;791.30;;;752.05;;
17197;SDS011;8715;51.010;6.812;2023-02-28T13:09:52;788.92;;;749.72;;
17197;SDS011;8715;51.010;6.812;2023-02-28T13:12:18;793.50;;;754.05;;
17197;SDS011;8715;51.010;6.812;2023-02-28T13:14:43;795.15;;;755.60;;
17197;SDS011;8715;51.010;6.812;2023-02-28T13:22:03;793.83;;;754.20;;
17197;SDS011;8715;51.010;6.812;2023-02-28T13:29:30;793.07;;;752.77;;
17197;SDS011;8715;51.010;6.812;2023-02-28T13:34:30;795.17;;;754.63;;
17197;SDS011;8715;51.010;6.812;2023-02-28T13:50:07;796.47;;;756.20;;
17197;SDS011;8715;51.010;6.812;2023-02-28T13:52:41;797.30;;;756.63;;
17197;SDS011;8715;51.010;6.812;2023-02-28T14:01:11;792.17;;;752.45;;
17197;SDS011;8715;51.010;6.812;2023-02-28T14:06:29;817.08;;;775.25;;
17197;SDS011;8715;51.010;6.812;2023-02-28T14:08:58;795.17;;;755.40;;
17197;SDS011;8715;51.010;6.812;2023-02-28T14:11:31;797.83;;;757.33;;
17197;SDS011;8715;51.010;6.812;2023-02-28T14:13:58;800.05;;;759.58;;
17197;SDS011;8715;51.010;6.812;2023-02-28T14:16:25;802.17;;;761.55;;
17197;SDS011;8715;51.010;6.812;2023-02-28T14:19:01;799.42;;;759.03;;
17197;SDS011;8715;51.010;6.812;2023-02-28T14:21:32;791.42;;;751.40;;
17197;SDS011;8715;51.010;6.812;2023-02-28T14:24:11;791.95;;;752.30;;
17197;SDS011;8715;51.010;6.812;2023-02-28T14:27:03;799.65;;;759.05;;
17197;SDS011;8715;51.010;6.812;2023-02-28T14:37:36;803.90;;;762.03;;
17197;SDS011;8715;51.010;6.812;2023-02-28T14:40:02;802.03;;;761.35;;
17197;SDS011;8715;51.010;6.812;2023-02-28T14:42:33;800.33;;;759.60;;
17197;SDS011;8715;51.010;6.812;2023-02-28T14:44:58;803.58;;;762.53;;
17197;SDS011;8715;51.010;6.812;2023-02-28T14:47:28;808.67;;;767.28;;
17197;SDS011;8715;51.010;6.812;2023-02-28T14:49:55;801.30;;;760.13;;
17197;SDS011;8715;51.010;6.812;2023-02-28T14:54:46;794.33;;;753.92;;
17197;SDS011;8715;51.010;6.812;2023-02-28T14:57:25;806.50;;;765.17;;
17197;SDS011;8715;51.010;6.812;2023-02-28T15:00:06;799.70;;;759.42;;
17197;SDS011;8715;51.010;6.812;2023-02-28T15:02:35;803.42;;;762.40;;
17197;SDS011;8715;51.010;6.812;2023-02-28T15:05:09;827.17;;;783.85;;
17197;SDS011;8715;51.010;6.812;2023-02-28T15:07:39;798.30;;;758.13;;
17197;SDS011;8715;51.010;6.812;2023-02-28T15:12:42;804.38;;;763.53;;
17197;SDS011;8715;51.010;6.812;2023-02-28T15:15:14;807.85;;;766.15;;
17197;SDS011;8715;51.010;6.812;2023-02-28T15:17:40;809.20;;;767.15;;
17197;SDS011;8715;51.010;6.812;2023-02-28T15:20:10;815.42;;;772.83;;
17197;SDS011;8715;51.010;6.812;2023-02-28T15:22:36;804.67;;;762.92;;
17197;SDS011;8715;51.010;6.812;2023-02-28T15:25:02;807.30;;;765.60;;
17197;SDS011;8715;51.010;6.812;2023-02-28T15:27:29;812.63;;;769.80;;
17197;SDS011;8715;51.010;6.812;2023-02-28T15:29:58;818.17;;;775.50;;
17197;SDS011;8715;51.010;6.812;2023-02-28T15:34:52;806.65;;;764.75;;
17197;SDS011;8715;51.010;6.812;2023-02-28T15:39:52;812.00;;;769.83;;
17197;SDS011;8715;51.010;6.812;2023-02-28T15:42:19;807.70;;;765.72;;
17197;SDS011;8715;51.010;6.812;2023-02-28T15:44:45;809.60;;;767.08;;
17197;SDS011;8715;51.010;6.812;2023-02-28T15:47:31;814.40;;;771.70;;
17197;SDS011;8715;51.010;6.812;2023-02-28T15:49:59;804.53;;;762.67;;
17197;SDS011;8715;51.010;6.812;2023-02-28T15:52:29;807.65;;;765.42;;
17197;SDS011;8715;51.010;6.812;2023-02-28T15:54:57;808.40;;;766.22;;
17197;SDS011;8715;51.010;6.812;2023-02-28T15:57:24;812.50;;;769.20;;
17197;SDS011;8715;51.010;6.812;2023-02-28T15:59:56;831.63;;;787.95;;
17197;SDS011;8715;51.010;6.812;2023-02-28T16:02:30;815.63;;;773.20;;
17197;SDS011;8715;51.010;6.812;2023-02-28T16:07:36;801.65;;;760.03;;
17197;SDS011;8715;51.010;6.812;2023-02-28T16:10:03;805.88;;;764.00;;
17197;SDS011;8715;51.010;6.812;2023-02-28T16:12:29;807.03;;;765.58;;
17197;SDS011;8715;51.010;6.812;2023-02-28T16:14:55;804.78;;;763.50;;
17197;SDS011;8715;51.010;6.812;2023-02-28T16:17:22;808.47;;;766.10;;
17197;SDS011;8715;51.010;6.812;2023-02-28T16:19:49;807.92;;;766.17;;
17197;SDS011;8715;51.010;6.812;2023-02-28T16:22:14;806.97;;;765.23;;
17197;SDS011;8715;51.010;6.812;2023-02-28T16:24:39;804.73;;;763.20;;
17197;SDS011;8715;51.010;6.812;2023-02-28T16:27:05;804.03;;;762.58;;
17197;SDS011;8715;51.010;6.812;2023-02-28T16:29:34;803.42;;;762.17;;
17197;SDS011;8715;51.010;6.812;2023-02-28T16:32:01;795.28;;;754.92;;
17197;SDS011;8715;51.010;6.812;2023-02-28T16:34:27;813.47;;;771.50;;